sensor_id;sensor_type;location;lat;lon;timestamp;pressure;altitude;pressure_sealevel;temperature;humidity
9289;BME280;4683;50.864;12.086;2022-10-23T00:02:33;99326.56;;;12.41;100.00
9289;BME280;4683;50.864;12.086;2022-10-23T00:05:23;99330.84;;;12.42;100.00
9289;BME280;4683;50.864;12.086;2022-10-23T00:08:12;99330.63;;;12.44;100.00
9289;BME280;4683;50.864;12.086;2022-10-23T00:10:59;99325.34;;;12.44;100.00
9289;BME280;4683;50.864;12.086;2022-10-23T00:13:48;99319.44;;;12.42;100.00
9289;BME280;4683;50.864;12.086;2022-10-23T00:16:36;99320.06;;;12.44;100.00
9289;BME280;4683;50.864;12.086;2022-10-23T00:19:25;99320.25;;;12.42;100.00
9289;BME280;4683;50.864;12.086;2022-10-23T00:22:14;99321.63;;;12.38;100.00
9289;BME280;4683;50.864;12.086;2022-10-23T00:25:04;99324.47;;;12.37;100.00
9289;BME280;4683;50.864;12.086;2022-10-23T00:27:52;99322.00;;;12.35;100.00
9289;BME280;4683;50.864;12.086;2022-10-23T00:30:44;99325.66;;;12.34;100.00
9289;BME280;4683;50.864;12.086;2022-10-23T00:33:32;99318.72;;;12.33;100.00
9289;BME280;4683;50.864;12.086;2022-10-23T00:36:20;99319.72;;;12.32;100.00
9289;BME280;4683;50.864;12.086;2022-10-23T00:39:10;99323.19;;;12.33;100.00
9289;BME280;4683;50.864;12.086;2022-10-23T00:41:58;99326.84;;;12.32;100.00
9289;BME280;4683;50.864;12.086;2022-10-23T00:45:11;99324.66;;;12.21;100.00
9289;BME280;4683;50.864;12.086;2022-10-23T00:48:00;99327.97;;;12.23;100.00
9289;BME280;4683;50.864;12.086;2022-10-23T00:50:49;99330.16;;;12.19;100.00
9289;BME280;4683;50.864;12.086;2022-10-23T00:53:43;99317.66;;;12.13;100.00
9289;BME280;4683;50.864;12.086;2022-10-23T00:56:34;99327.41;;;12.12;100.00
9289;BME280;4683;50.864;12.086;2022-10-23T00:59:28;99329.97;;;12.06;100.00
9289;BME280;4683;50.864;12.086;2022-10-23T01:02:17;99326.06;;;12.02;100.00
9289;BME280;4683;50.864;12.086;2022-10-23T01:05:07;99323.13;;;11.97;100.00
9289;BME280;4683;50.864;12.086;2022-10-23T01:07:58;99332.09;;;11.96;100.00
9289;BME280;4683;50.864;12.086;2022-10-23T01:10:51;99323.50;;;11.93;100.00
9289;BME280;4683;50.864;12.086;2022-10-23T01:13:59;99322.22;;;11.89;100.00
9289;BME280;4683;50.864;12.086;2022-10-23T01:16:58;99326.34;;;11.92;100.00
9289;BME280;4683;50.864;12.086;2022-10-23T01:20:00;99325.88;;;11.88;100.00
9289;BME280;4683;50.864;12.086;2022-10-23T01:23:17;99323.97;;;11.82;100.00
9289;BME280;4683;50.864;12.086;2022-10-23T01:26:29;99317.00;;;11.81;100.00
9289;BME280;4683;50.864;12.086;2022-10-23T01:29:28;99309.91;;;11.82;100.00
9289;BME280;4683;50.864;12.086;2022-10-23T01:32:29;99308.22;;;11.81;100.00
9289;BME280;4683;50.864;12.086;2022-10-23T01:35:26;99306.44;;;11.81;100.00
9289;BME280;4683;50.864;12.086;2022-10-23T01:38:19;99303.34;;;11.78;100.00
9289;BME280;4683;50.864;12.086;2022-10-23T01:41:13;99317.38;;;11.78;100.00
9289;BME280;4683;50.864;12.086;2022-10-23T01:44:08;99310.25;;;11.79;100.00
9289;BME280;4683;50.864;12.086;2022-10-23T01:46:59;99313.38;;;11.82;100.00
9289;BME280;4683;50.864;12.086;2022-10-23T01:49:48;99311.56;;;11.83;100.00
9289;BME280;4683;50.864;12.086;2022-10-23T01:52:39;99309.44;;;11.78;100.00
9289;BME280;4683;50.864;12.086;2022-10-23T01:55:26;99318.72;;;11.74;100.00
9289;BME280;4683;50.864;12.086;2022-10-23T01:58:16;99308.91;;;11.68;100.00
9289;BME280;4683;50.864;12.086;2022-10-23T02:01:07;99303.97;;;11.65;100.00
9289;BME280;4683;50.864;12.086;2022-10-23T02:04:04;99301.03;;;11.60;100.00
9289;BME280;4683;50.864;12.086;2022-10-23T02:06:53;99291.84;;;11.56;100.00
9289;BME280;4683;50.864;12.086;2022-10-23T02:09:40;99287.91;;;11.52;100.00
9289;BME280;4683;50.864;12.086;2022-10-23T02:12:34;99291.91;;;11.48;100.00
9289;BME280;4683;50.864;12.086;2022-10-23T02:15:31;99300.66;;;11.48;100.00
9289;BME280;4683;50.864;12.086;2022-10-23T02:18:32;99300.84;;;11.47;100.00
9289;BME280;4683;50.864;12.086;2022-10-23T02:21:33;99288.66;;;11.46;100.00
9289;BME280;4683;50.864;12.086;2022-10-23T02:24:30;99287.00;;;11.45;100.00
9289;BME280;4683;50.864;12.086;2022-10-23T02:27:24;99283.91;;;11.41;100.00
9289;BME280;4683;50.864;12.086;2022-10-23T02:30:17;99277.81;;;11.40;100.00
9289;BME280;4683;50.864;12.086;2022-10-23T02:33:06;99270.50;;;11.42;100.00
9289;BME280;4683;50.864;12.086;2022-10-23T02:35:55;99256.69;;;11.40;100.00
9289;BME280;4683;50.864;12.086;2022-10-23T02:38:45;99266.59;;;11.38;100.00
9289;BME280;4683;50.864;12.086;2022-10-23T02:41:45;99257.09;;;11.29;100.00
9289;BME280;4683;50.864;12.086;2022-10-23T02:44:43;99262.38;;;11.29;100.00
9289;BME280;4683;50.864;12.086;2022-10-23T02:47:53;99261.09;;;11.25;100.00
9289;BME280;4683;50.864;12.086;2022-10-23T02:50:54;99253.47;;;11.30;100.00
9289;BME280;4683;50.864;12.086;2022-10-23T02:53:58;99251.47;;;11.32;100.00
9289;BME280;4683;50.864;12.086;2022-10-23T02:56:57;99255.13;;;11.31;100.00
9289;BME280;4683;50.864;12.086;2022-10-23T02:59:59;99267.03;;;11.27;100.00
9289;BME280;4683;50.864;12.086;2022-10-23T03:02:55;99260.28;;;11.25;100.00
9289;BME280;4683;50.864;12.086;2022-10-23T03:05:45;99255.00;;;11.25;100.00
9289;BME280;4683;50.864;12.086;2022-10-23T03:08:49;99262.19;;;11.16;100.00
9289;BME280;4683;50.864;12.086;2022-10-23T03:11:39;99265.00;;;11.14;100.00
9289;BME280;4683;50.864;12.086;2022-10-23T03:14:28;99269.19;;;11.09;100.00
9289;BME280;4683;50.864;12.086;2022-10-23T03:17:16;99266.44;;;11.02;100.00
9289;BME280;4683;50.864;12.086;2022-10-23T03:20:04;99264.69;;;10.95;100.00
9289;BME280;4683;50.864;12.086;2022-10-23T03:22:52;99272.69;;;10.86;100.00
9289;BME280;4683;50.864;12.086;2022-10-23T03:25:43;99259.00;;;10.83;100.00
9289;BME280;4683;50.864;12.086;2022-10-23T03:28:30;99252.25;;;10.80;100.00
9289;BME280;4683;50.864;12.086;2022-10-23T03:31:34;99246.06;;;10.73;100.00
9289;BME280;4683;50.864;12.086;2022-10-23T03:34:21;99244.06;;;10.75;100.00
9289;BME280;4683;50.864;12.086;2022-10-23T03:37:10;99252.97;;;10.74;100.00
9289;BME280;4683;50.864;12.086;2022-10-23T03:39:58;99253.97;;;10.73;100.00
9289;BME280;4683;50.864;12.086;2022-10-23T03:42:47;99257.63;;;10.72;100.00
9289;BME280;4683;50.864;12.086;2022-10-23T03:45:35;99255.63;;;10.74;100.00
9289;BME280;4683;50.864;12.086;2022-10-23T03:48:23;99268.00;;;10.74;100.00
9289;BME280;4683;50.864;12.086;2022-10-23T03:51:12;99261.88;;;10.73;100.00
9289;BME280;4683;50.864;12.086;2022-10-23T03:54:05;99267.50;;;10.70;100.00
9289;BME280;4683;50.864;12.086;2022-10-23T03:56:55;99271.16;;;10.69;100.00
9289;BME280;4683;50.864;12.086;2022-10-23T03:59:45;99268.84;;;10.66;100.00
9289;BME280;4683;50.864;12.086;2022-10-23T04:02:33;99256.03;;;10.63;100.00
9289;BME280;4683;50.864;12.086;2022-10-23T04:05:21;99260.03;;;10.59;100.00
9289;BME280;4683;50.864;12.086;2022-10-23T04:08:11;99242.91;;;10.55;100.00
9289;BME280;4683;50.864;12.086;2022-10-23T04:10:59;99254.28;;;10.55;100.00
9289;BME280;4683;50.864;12.086;2022-10-23T04:13:46;99258.34;;;10.58;100.00
9289;BME280;4683;50.864;12.086;2022-10-23T04:16:36;99259.03;;;10.60;100.00
9289;BME280;4683;50.864;12.086;2022-10-23T04:19:24;99259.66;;;10.62;100.00
9289;BME280;4683;50.864;12.086;2022-10-23T04:22:13;99259.84;;;10.60;100.00
9289;BME280;4683;50.864;12.086;2022-10-23T04:25:01;99258.34;;;10.58;100.00
9289;BME280;4683;50.864;12.086;2022-10-23T04:27:49;99263.63;;;10.58;100.00
9289;BME280;4683;50.864;12.086;2022-10-23T04:30:36;99264.81;;;10.55;100.00
9289;BME280;4683;50.864;12.086;2022-10-23T04:33:26;99268.28;;;10.56;100.00
9289;BME280;4683;50.864;12.086;2022-10-23T04:36:14;99256.09;;;10.55;100.00
9289;BME280;4683;50.864;12.086;2022-10-23T04:39:02;99260.06;;;10.51;100.00
9289;BME280;4683;50.864;12.086;2022-10-23T04:41:50;99252.50;;;10.48;100.00
9289;BME280;4683;50.864;12.086;2022-10-23T04:44:38;99250.38;;;10.43;100.00
9289;BME280;4683;50.864;12.086;2022-10-23T04:47:27;99252.53;;;10.39;100.00
9289;BME280;4683;50.864;12.086;2022-10-23T04:50:23;99255.56;;;10.36;100.00
9289;BME280;4683;50.864;12.086;2022-10-23T04:53:10;99265.72;;;10.39;100.00
9289;BME280;4683;50.864;12.086;2022-10-23T04:56:00;99257.66;;;10.41;100.00
9289;BME280;4683;50.864;12.086;2022-10-23T04:58:49;99253.22;;;10.41;100.00
9289;BME280;4683;50.864;12.086;2022-10-23T05:01:38;99252.25;;;10.34;100.00
9289;BME280;4683;50.864;12.086;2022-10-23T05:04:25;99252.97;;;10.28;100.00
9289;BME280;4683;50.864;12.086;2022-10-23T05:07:16;99246.06;;;10.27;100.00
9289;BME280;4683;50.864;12.086;2022-10-23T05:10:06;99250.66;;;10.25;100.00
9289;BME280;4683;50.864;12.086;2022-10-23T05:12:55;99245.38;;;10.25;100.00
9289;BME280;4683;50.864;12.086;2022-10-23T05:15:43;99242.41;;;10.28;100.00
9289;BME280;4683;50.864;12.086;2022-10-23T05:18:37;99246.34;;;10.32;100.00
9289;BME280;4683;50.864;12.086;2022-10-23T05:21:29;99235.63;;;10.34;100.00
9289;BME280;4683;50.864;12.086;2022-10-23T05:24:22;99235.75;;;10.40;100.00
9289;BME280;4683;50.864;12.086;2022-10-23T05:27:10;99229.13;;;10.45;100.00
9289;BME280;4683;50.864;12.086;2022-10-23T05:30:01;99238.31;;;10.49;100.00
9289;BME280;4683;50.864;12.086;2022-10-23T05:32:49;99240.25;;;10.55;100.00
9289;BME280;4683;50.864;12.086;2022-10-23T05:35:38;99240.22;;;10.63;100.00
9289;BME280;4683;50.864;12.086;2022-10-23T05:38:30;99232.22;;;10.71;100.00
9289;BME280;4683;50.864;12.086;2022-10-23T05:41:33;99231.69;;;10.76;100.00
9289;BME280;4683;50.864;12.086;2022-10-23T05:44:21;99227.16;;;10.84;100.00
9289;BME280;4683;50.864;12.086;2022-10-23T05:47:08;99227.16;;;10.84;100.00
9289;BME280;4683;50.864;12.086;2022-10-23T05:49:56;99219.25;;;10.84;100.00
9289;BME280;4683;50.864;12.086;2022-10-23T05:52:47;99226.34;;;10.84;100.00
9289;BME280;4683;50.864;12.086;2022-10-23T05:55:36;99232.44;;;10.84;100.00
9289;BME280;4683;50.864;12.086;2022-10-23T05:58:27;99243.72;;;10.78;100.00
9289;BME280;4683;50.864;12.086;2022-10-23T06:01:15;99237.31;;;10.73;100.00
9289;BME280;4683;50.864;12.086;2022-10-23T06:04:04;99241.94;;;10.71;100.00
9289;BME280;4683;50.864;12.086;2022-10-23T06:06:52;99245.41;;;10.71;100.00
9289;BME280;4683;50.864;12.086;2022-10-23T06:09:40;99250.34;;;10.74;100.00
9289;BME280;4683;50.864;12.086;2022-10-23T06:12:27;99248.50;;;10.75;100.00
9289;BME280;4683;50.864;12.086;2022-10-23T06:15:18;99250.16;;;10.76;100.00
9289;BME280;4683;50.864;12.086;2022-10-23T06:18:06;99257.19;;;10.83;100.00
9289;BME280;4683;50.864;12.086;2022-10-23T06:20:54;99253.66;;;10.91;100.00
9289;BME280;4683;50.864;12.086;2022-10-23T06:23:43;99251.31;;;10.96;100.00
9289;BME280;4683;50.864;12.086;2022-10-23T06:26:33;99245.50;;;11.01;100.00
9289;BME280;4683;50.864;12.086;2022-10-23T06:29:24;99241.22;;;11.00;100.00
9289;BME280;4683;50.864;12.086;2022-10-23T06:32:14;99241.84;;;11.02;100.00
9289;BME280;4683;50.864;12.086;2022-10-23T06:35:17;99249.16;;;11.14;100.00
9289;BME280;4683;50.864;12.086;2022-10-23T06:38:06;99248.56;;;11.27;100.00
9289;BME280;4683;50.864;12.086;2022-10-23T06:40:59;99252.03;;;11.42;100.00
9289;BME280;4683;50.864;12.086;2022-10-23T06:43:49;99237.19;;;11.56;100.00
9289;BME280;4683;50.864;12.086;2022-10-23T06:46:37;99241.38;;;11.65;100.00
9289;BME280;4683;50.864;12.086;2022-10-23T06:49:28;99247.03;;;11.77;100.00
9289;BME280;4683;50.864;12.086;2022-10-23T06:52:16;99242.75;;;11.91;100.00
9289;BME280;4683;50.864;12.086;2022-10-23T06:55:07;99236.25;;;12.08;100.00
9289;BME280;4683;50.864;12.086;2022-10-23T06:57:55;99245.16;;;12.22;100.00
9289;BME280;4683;50.864;12.086;2022-10-23T07:00:43;99240.63;;;12.37;100.00
9289;BME280;4683;50.864;12.086;2022-10-23T07:03:31;99246.06;;;12.51;100.00
9289;BME280;4683;50.864;12.086;2022-10-23T07:06:23;99244.72;;;12.61;100.00
9289;BME280;4683;50.864;12.086;2022-10-23T07:09:11;99250.72;;;12.70;100.00
9289;BME280;4683;50.864;12.086;2022-10-23T07:11:59;99252.22;;;12.79;100.00
9289;BME280;4683;50.864;12.086;2022-10-23T07:14:47;99243.78;;;12.90;100.00
9289;BME280;4683;50.864;12.086;2022-10-23T07:17:34;99243.25;;;13.02;100.00
9289;BME280;4683;50.864;12.086;2022-10-23T07:20:22;99244.88;;;13.03;100.00
9289;BME280;4683;50.864;12.086;2022-10-23T07:23:13;99253.91;;;13.08;100.00
9289;BME280;4683;50.864;12.086;2022-10-23T07:26:07;99257.78;;;13.12;100.00
9289;BME280;4683;50.864;12.086;2022-10-23T07:28:55;99253.16;;;13.21;100.00
9289;BME280;4683;50.864;12.086;2022-10-23T07:31:42;99249.00;;;13.33;100.00
9289;BME280;4683;50.864;12.086;2022-10-23T07:34:31;99238.28;;;13.41;100.00
9289;BME280;4683;50.864;12.086;2022-10-23T07:37:18;99234.44;;;13.51;100.00
9289;BME280;4683;50.864;12.086;2022-10-23T07:40:10;99228.59;;;13.62;100.00
9289;BME280;4683;50.864;12.086;2022-10-23T07:42:58;99220.09;;;13.73;100.00
9289;BME280;4683;50.864;12.086;2022-10-23T07:45:50;99219.34;;;13.86;100.00
9289;BME280;4683;50.864;12.086;2022-10-23T07:48:39;99218.34;;;13.93;100.00
9289;BME280;4683;50.864;12.086;2022-10-23T07:51:27;99212.91;;;14.08;100.00
9289;BME280;4683;50.864;12.086;2022-10-23T07:54:14;99226.59;;;14.25;100.00
9289;BME280;4683;50.864;12.086;2022-10-23T07:57:12;99232.00;;;14.52;100.00
9289;BME280;4683;50.864;12.086;2022-10-23T08:00:00;99231.00;;;14.66;100.00
9289;BME280;4683;50.864;12.086;2022-10-23T08:02:47;99225.91;;;14.84;100.00
9289;BME280;4683;50.864;12.086;2022-10-23T08:05:35;99225.69;;;15.06;100.00
9289;BME280;4683;50.864;12.086;2022-10-23T08:08:24;99222.63;;;15.02;100.00
9289;BME280;4683;50.864;12.086;2022-10-23T08:11:14;99224.66;;;15.20;100.00
9289;BME280;4683;50.864;12.086;2022-10-23T08:14:05;99222.03;;;15.13;100.00
9289;BME280;4683;50.864;12.086;2022-10-23T08:16:55;99230.56;;;15.29;100.00
9289;BME280;4683;50.864;12.086;2022-10-23T08:19:44;99226.91;;;15.36;100.00
9289;BME280;4683;50.864;12.086;2022-10-23T08:22:36;99232.56;;;15.53;100.00
9289;BME280;4683;50.864;12.086;2022-10-23T08:25:23;99226.44;;;15.66;100.00
9289;BME280;4683;50.864;12.086;2022-10-23T08:28:11;99219.50;;;15.65;100.00
9289;BME280;4683;50.864;12.086;2022-10-23T08:31:07;99216.63;;;15.53;100.00
9289;BME280;4683;50.864;12.086;2022-10-23T08:33:55;99210.47;;;15.59;100.00
9289;BME280;4683;50.864;12.086;2022-10-23T08:36:43;99208.84;;;15.65;100.00
9289;BME280;4683;50.864;12.086;2022-10-23T08:39:31;99210.28;;;15.67;100.00
9289;BME280;4683;50.864;12.086;2022-10-23T08:42:22;99207.19;;;15.77;100.00
9289;BME280;4683;50.864;12.086;2022-10-23T08:45:29;99211.09;;;15.68;100.00
9289;BME280;4683;50.864;12.086;2022-10-23T08:48:24;99209.66;;;15.72;100.00
9289;BME280;4683;50.864;12.086;2022-10-23T08:51:18;99202.28;;;15.74;100.00
9289;BME280;4683;50.864;12.086;2022-10-23T08:54:16;99209.22;;;15.75;100.00
9289;BME280;4683;50.864;12.086;2022-10-23T08:57:14;99214.97;;;15.72;100.00
9289;BME280;4683;50.864;12.086;2022-10-23T09:00:07;99215.09;;;15.90;100.00
9289;BME280;4683;50.864;12.086;2022-10-23T09:03:01;99209.09;;;16.02;100.00
9289;BME280;4683;50.864;12.086;2022-10-23T09:06:04;99214.84;;;16.05;100.00
9289;BME280;4683;50.864;12.086;2022-10-23T09:09:07;99215.59;;;16.12;100.00
9289;BME280;4683;50.864;12.086;2022-10-23T09:12:10;99211.78;;;16.40;100.00
9289;BME280;4683;50.864;12.086;2022-10-23T09:15:19;99209.75;;;16.67;100.00
9289;BME280;4683;50.864;12.086;2022-10-23T09:18:12;99201.25;;;16.83;100.00
9289;BME280;4683;50.864;12.086;2022-10-23T09:21:09;99190.03;;;16.99;100.00
9289;BME280;4683;50.864;12.086;2022-10-23T09:23:57;99188.50;;;17.10;100.00
9289;BME280;4683;50.864;12.086;2022-10-23T09:26:47;99187.84;;;17.15;100.00
9289;BME280;4683;50.864;12.086;2022-10-23T09:29:36;99200.00;;;17.29;100.00
9289;BME280;4683;50.864;12.086;2022-10-23T09:32:35;99199.13;;;17.17;100.00
9289;BME280;4683;50.864;12.086;2022-10-23T09:35:26;99188.75;;;17.45;100.00
9289;BME280;4683;50.864;12.086;2022-10-23T09:38:30;99187.13;;;17.63;100.00
9289;BME280;4683;50.864;12.086;2022-10-23T09:41:23;99182.16;;;17.48;100.00
9289;BME280;4683;50.864;12.086;2022-10-23T09:44:19;99187.94;;;17.63;100.00
9289;BME280;4683;50.864;12.086;2022-10-23T09:47:10;99184.00;;;17.66;100.00
9289;BME280;4683;50.864;12.086;2022-10-23T09:49:58;99174.31;;;17.90;100.00
9289;BME280;4683;50.864;12.086;2022-10-23T09:52:48;99158.63;;;17.93;100.00
9289;BME280;4683;50.864;12.086;2022-10-23T09:55:39;99157.75;;;17.99;100.00
9289;BME280;4683;50.864;12.086;2022-10-23T09:58:35;99163.81;;;18.07;100.00
9289;BME280;4683;50.864;12.086;2022-10-23T10:01:25;99166.25;;;18.08;100.00
9289;BME280;4683;50.864;12.086;2022-10-23T10:04:15;99162.03;;;18.31;100.00
9289;BME280;4683;50.864;12.086;2022-10-23T10:07:14;99161.72;;;18.09;100.00
9289;BME280;4683;50.864;12.086;2022-10-23T10:10:12;99157.28;;;18.03;100.00
9289;BME280;4683;50.864;12.086;2022-10-23T10:13:16;99151.63;;;18.11;100.00
9289;BME280;4683;50.864;12.086;2022-10-23T10:16:24;99155.72;;;18.25;100.00
9289;BME280;4683;50.864;12.086;2022-10-23T10:19:26;99157.44;;;18.08;100.00
9289;BME280;4683;50.864;12.086;2022-10-23T10:22:30;99156.00;;;18.35;100.00
9289;BME280;4683;50.864;12.086;2022-10-23T10:25:35;99153.59;;;18.57;100.00
9289;BME280;4683;50.864;12.086;2022-10-23T10:28:57;99135.84;;;18.63;100.00
9289;BME280;4683;50.864;12.086;2022-10-23T10:32:01;99137.03;;;18.67;100.00
9289;BME280;4683;50.864;12.086;2022-10-23T10:35:02;99124.81;;;18.71;100.00
9289;BME280;4683;50.864;12.086;2022-10-23T10:38:17;99130.06;;;18.78;100.00
9289;BME280;4683;50.864;12.086;2022-10-23T10:41:41;99122.50;;;18.74;100.00
9289;BME280;4683;50.864;12.086;2022-10-23T10:44:56;99126.00;;;18.75;100.00
9289;BME280;4683;50.864;12.086;2022-10-23T10:51:10;99115.06;;;18.88;100.00
9289;BME280;4683;50.864;12.086;2022-10-23T10:54:14;99110.63;;;18.94;100.00
9289;BME280;4683;50.864;12.086;2022-10-23T10:57:19;99109.94;;;18.98;100.00
9289;BME280;4683;50.864;12.086;2022-10-23T11:00:21;99117.16;;;18.98;100.00
9289;BME280;4683;50.864;12.086;2022-10-23T11:03:20;99098.56;;;18.91;100.00
9289;BME280;4683;50.864;12.086;2022-10-23T11:06:15;99097.38;;;18.64;100.00
9289;BME280;4683;50.864;12.086;2022-10-23T11:09:20;99089.75;;;18.79;100.00
9289;BME280;4683;50.864;12.086;2022-10-23T11:12:16;99090.50;;;19.15;100.00
9289;BME280;4683;50.864;12.086;2022-10-23T11:15:15;99080.50;;;19.22;100.00
9289;BME280;4683;50.864;12.086;2022-10-23T11:18:12;99078.59;;;19.34;100.00
9289;BME280;4683;50.864;12.086;2022-10-23T11:21:18;99084.94;;;19.57;100.00
9289;BME280;4683;50.864;12.086;2022-10-23T11:24:57;99080.63;;;19.56;100.00
9289;BME280;4683;50.864;12.086;2022-10-23T11:28:14;99072.69;;;19.32;100.00
9289;BME280;4683;50.864;12.086;2022-10-23T11:31:19;99064.31;;;19.69;100.00
9289;BME280;4683;50.864;12.086;2022-10-23T11:34:50;99057.69;;;19.88;100.00
9289;BME280;4683;50.864;12.086;2022-10-23T11:37:42;99047.56;;;20.07;100.00
9289;BME280;4683;50.864;12.086;2022-10-23T11:40:30;99045.06;;;20.00;100.00
9289;BME280;4683;50.864;12.086;2022-10-23T11:43:32;99037.78;;;20.13;100.00
9289;BME280;4683;50.864;12.086;2022-10-23T11:46:38;99031.25;;;20.25;100.00
9289;BME280;4683;50.864;12.086;2022-10-23T11:49:27;99028.81;;;20.41;100.00
9289;BME280;4683;50.864;12.086;2022-10-23T11:52:23;99034.84;;;20.31;100.00
9289;BME280;4683;50.864;12.086;2022-10-23T11:55:19;99037.84;;;20.18;100.00
9289;BME280;4683;50.864;12.086;2022-10-23T11:58:26;99035.16;;;20.35;100.00
9289;BME280;4683;50.864;12.086;2022-10-23T12:01:35;99027.03;;;20.46;100.00
9289;BME280;4683;50.864;12.086;2022-10-23T12:04:34;99031.25;;;20.42;100.00
9289;BME280;4683;50.864;12.086;2022-10-23T12:07:30;99022.41;;;20.59;100.00
9289;BME280;4683;50.864;12.086;2022-10-23T12:10:25;99016.31;;;20.63;100.00
9289;BME280;4683;50.864;12.086;2022-10-23T12:13:31;99017.00;;;20.54;100.00
9289;BME280;4683;50.864;12.086;2022-10-23T12:16:37;98998.16;;;20.48;100.00
9289;BME280;4683;50.864;12.086;2022-10-23T12:19:28;98989.84;;;20.67;100.00
9289;BME280;4683;50.864;12.086;2022-10-23T12:22:16;98988.25;;;20.71;100.00
9289;BME280;4683;50.864;12.086;2022-10-23T12:25:11;98982.97;;;20.76;100.00
9289;BME280;4683;50.864;12.086;2022-10-23T12:28:05;98981.03;;;20.71;100.00
9289;BME280;4683;50.864;12.086;2022-10-23T12:31:16;98977.97;;;20.85;100.00
9289;BME280;4683;50.864;12.086;2022-10-23T12:34:27;98961.25;;;20.99;100.00
9289;BME280;4683;50.864;12.086;2022-10-23T12:37:46;98975.59;;;21.10;100.00
9289;BME280;4683;50.864;12.086;2022-10-23T12:40:39;98969.63;;;21.30;100.00
9289;BME280;4683;50.864;12.086;2022-10-23T12:43:33;98965.66;;;21.33;100.00
9289;BME280;4683;50.864;12.086;2022-10-23T12:46:31;98967.06;;;20.91;100.00
9289;BME280;4683;50.864;12.086;2022-10-23T12:49:25;98967.75;;;21.03;100.00
9289;BME280;4683;50.864;12.086;2022-10-23T12:52:17;98969.00;;;20.96;100.00
9289;BME280;4683;50.864;12.086;2022-10-23T12:55:13;98969.91;;;21.07;100.00
9289;BME280;4683;50.864;12.086;2022-10-23T12:58:05;98961.25;;;20.99;100.00
9289;BME280;4683;50.864;12.086;2022-10-23T13:00:55;98956.09;;;21.20;100.00
9289;BME280;4683;50.864;12.086;2022-10-23T13:03:43;98952.78;;;21.35;100.00
9289;BME280;4683;50.864;12.086;2022-10-23T13:06:34;98943.00;;;21.45;100.00
9289;BME280;4683;50.864;12.086;2022-10-23T13:09:28;98932.59;;;21.54;100.00
9289;BME280;4683;50.864;12.086;2022-10-23T13:12:21;98921.97;;;21.69;100.00
9289;BME280;4683;50.864;12.086;2022-10-23T13:15:19;98918.81;;;21.77;100.00
9289;BME280;4683;50.864;12.086;2022-10-23T13:18:15;98910.59;;;21.89;100.00
9289;BME280;4683;50.864;12.086;2022-10-23T13:21:15;98914.28;;;21.83;100.00
9289;BME280;4683;50.864;12.086;2022-10-23T13:24:17;98913.44;;;21.77;100.00
9289;BME280;4683;50.864;12.086;2022-10-23T13:27:25;98909.13;;;21.71;100.00
9289;BME280;4683;50.864;12.086;2022-10-23T13:30:32;98902.38;;;21.69;100.00
9289;BME280;4683;50.864;12.086;2022-10-23T13:33:24;98899.22;;;21.77;100.00
9289;BME280;4683;50.864;12.086;2022-10-23T13:36:25;98892.44;;;21.69;100.00
9289;BME280;4683;50.864;12.086;2022-10-23T13:39:20;98899.69;;;21.69;100.00
9289;BME280;4683;50.864;12.086;2022-10-23T13:42:13;98898.63;;;21.70;100.00
9289;BME280;4683;50.864;12.086;2022-10-23T13:45:02;98896.72;;;21.70;100.00
9289;BME280;4683;50.864;12.086;2022-10-23T13:47:49;98900.81;;;21.78;100.00
9289;BME280;4683;50.864;12.086;2022-10-23T13:50:37;98899.44;;;21.75;100.00
9289;BME280;4683;50.864;12.086;2022-10-23T13:53:27;98895.34;;;21.63;100.00
9289;BME280;4683;50.864;12.086;2022-10-23T13:56:21;98890.09;;;21.46;100.00
9289;BME280;4683;50.864;12.086;2022-10-23T13:59:10;98890.34;;;21.39;100.00
9289;BME280;4683;50.864;12.086;2022-10-23T14:01:58;98888.09;;;21.31;100.00
9289;BME280;4683;50.864;12.086;2022-10-23T14:04:50;98887.97;;;21.21;100.00
9289;BME280;4683;50.864;12.086;2022-10-23T14:07:37;98885.50;;;21.14;100.00
9289;BME280;4683;50.864;12.086;2022-10-23T14:10:26;98883.53;;;21.05;100.00
9289;BME280;4683;50.864;12.086;2022-10-23T14:13:17;98876.25;;;21.00;100.00
9289;BME280;4683;50.864;12.086;2022-10-23T14:16:09;98873.25;;;20.96;100.00
9289;BME280;4683;50.864;12.086;2022-10-23T14:18:59;98862.97;;;20.88;100.00
9289;BME280;4683;50.864;12.086;2022-10-23T14:21:47;98864.47;;;20.79;100.00
9289;BME280;4683;50.864;12.086;2022-10-23T14:24:36;98864.13;;;20.70;100.00
9289;BME280;4683;50.864;12.086;2022-10-23T14:27:24;98860.03;;;20.63;100.00
9289;BME280;4683;50.864;12.086;2022-10-23T14:30:31;98867.88;;;20.47;100.00
9289;BME280;4683;50.864;12.086;2022-10-23T14:33:31;98860.97;;;20.51;100.00
9289;BME280;4683;50.864;12.086;2022-10-23T14:36:30;98858.44;;;20.45;100.00
9289;BME280;4683;50.864;12.086;2022-10-23T14:39:37;98849.47;;;20.34;100.00
9289;BME280;4683;50.864;12.086;2022-10-23T14:42:35;98854.97;;;20.22;100.00
9289;BME280;4683;50.864;12.086;2022-10-23T14:45:38;98854.16;;;20.22;100.00
9289;BME280;4683;50.864;12.086;2022-10-23T14:48:27;98851.97;;;20.19;100.00
9289;BME280;4683;50.864;12.086;2022-10-23T14:51:19;98855.88;;;20.11;100.00
9289;BME280;4683;50.864;12.086;2022-10-23T14:54:08;98858.75;;;20.05;100.00
9289;BME280;4683;50.864;12.086;2022-10-23T14:56:56;98860.31;;;19.84;100.00
9289;BME280;4683;50.864;12.086;2022-10-23T14:59:44;98859.03;;;19.69;100.00
9289;BME280;4683;50.864;12.086;2022-10-23T15:02:35;98855.28;;;19.70;100.00
9289;BME280;4683;50.864;12.086;2022-10-23T15:05:23;98849.88;;;19.48;100.00
9289;BME280;4683;50.864;12.086;2022-10-23T15:08:11;98844.59;;;19.54;100.00
9289;BME280;4683;50.864;12.086;2022-10-23T15:11:00;98838.19;;;19.55;100.00
9289;BME280;4683;50.864;12.086;2022-10-23T15:13:57;98839.25;;;19.54;100.00
9289;BME280;4683;50.864;12.086;2022-10-23T15:16:46;98837.28;;;19.32;100.00
9289;BME280;4683;50.864;12.086;2022-10-23T15:19:36;98841.88;;;19.20;100.00
9289;BME280;4683;50.864;12.086;2022-10-23T15:22:23;98845.19;;;19.10;100.00
9289;BME280;4683;50.864;12.086;2022-10-23T15:25:13;98839.84;;;19.10;100.00